• Join FlightAware (Why Join?)
  • Login
  • US Flag 
10:41AM EDT


 

Airport Tracker/Info


-or-


 

Live Flight TrackerFlight Track Log ✈ SWA385 ✈ 16-Jul-2013 ✈ KSMF - KSNA

Flight Track Log - Related Links

Times and Time Zones

All times are in EDT time to prevent confusion due to time zone crossing. See the SWA385 flight status page for this flight to view local times or setup timezone preferences in your user account.

Time Position Orientation Groundspeed Altitude Reporting Facility
EDT Latitude Longitude Course Direction KTS MPH feet Rate Location/Type
12:15AM 38.6167 -121.4833 117° Southeast 264 304 6,800  Level Northern Cal TRACON
12:16AM 38.5667 -121.4000 127° Southeast 307 353 11,400 3,720 Climbing Northern Cal TRACON
12:18AM 38.5058 -121.2558 118° Southeast 352 405 15,600 3,120 Climbing Oakland Center
12:19AM 38.4494 -121.1397 122° Southeast 392 451 18,800 3,240 Climbing Oakland Center
12:20AM 38.3128 -121.0026 109° East  Level FlightAware Approximate
12:20AM 38.3911 -121.0158 121° Southeast 408 470 22,200  Level Oakland Center
12:21AM 38.3297 -120.8872 121° Southeast 421 484 25,500 2,940 Climbing Oakland Center
12:22AM 38.2667 -120.7564 122° Southeast 434 499 28,200 1,680 Climbing Oakland Center
12:23AM 38.1878 -120.6397 131° Southeast 436 502 29,000 900 Climbing Oakland Center
12:24AM 38.0928 -120.5444 142° Southeast 435 501 30,100 1,980 Climbing Oakland Center
12:25AM 37.9967 -120.4514 143° Southeast 433 498 33,100 2,700 Climbing Oakland Center
12:26AM 37.9050 -120.3611 142° Southeast 419 482 35,700 1,860 Climbing Oakland Center
12:27AM 37.7964 -120.2581 143° Southeast 407 468 37,000 600 Climbing Oakland Center
12:28AM 37.7067 -120.1700 142° Southeast 407 468 37,000  Level Oakland Center
12:29AM 37.6158 -120.0836 143° Southeast 407 468 37,000  Level Oakland Center
12:30AM 37.5258 -119.9969 143° Southeast 406 467 37,000  Level Oakland Center
12:31AM 37.4314 -119.9053 142° Southeast 413 475 37,000  Level Oakland Center
12:32AM 37.3417 -119.8206 143° Southeast 415 478 37,000  Level Oakland Center
12:33AM 37.2525 -119.7367 143° Southeast 413 475 37,000  Level Oakland Center
12:34AM 37.1603 -119.6464 142° Southeast 419 482 37,000  Level Oakland Center
12:35AM 37.0581 -119.5958 158° South 404 465 37,000  Level Oakland Center
12:36AM 36.9267 -119.5978 181° South 392 451 37,000  Level Oakland Center
12:37AM 36.8169 -119.5997 181° South 394 453 37,000  Level Oakland Center
12:38AM 36.7075 -119.6028 181° South 394 453 37,000  Level Oakland Center
12:39AM 36.5981 -119.6036 180° South 394 453 37,000  Level Oakland Center
12:40AM 36.4886 -119.6072 182° South 393 452 37,000  Level Oakland Center
12:41AM 36.3781 -119.6075 180° South 394 453 37,000  Level Oakland Center
12:42AM 36.2683 -119.6097 181° South 395 455 37,000  Level Oakland Center
12:43AM 36.1572 -119.6119 181° South 397 457 37,000  Level Oakland Center
12:44AM 36.0472 -119.6133 181° South 396 456 37,000  Level Oakland Center
12:45AM 35.9350 -119.6156 181° South 400 460 37,000  Level Oakland Center
12:46AM 35.8239 -119.6208 182° South 399 459 37,000  Level Oakland Center
12:47AM 35.7117 -119.6244 181° South 400 460 37,000  Level Oakland Center
12:48AM 35.5997 -119.6278 181° South 400 460 37,000  Level Oakland Center
12:49AM 35.4669 -119.6064 173° South 397 457 37,000  Level Oakland Center
12:50AM 35.3636 -119.5439 154° Southeast 406 467 37,000  Level Oakland Center
12:51AM 35.2597 -119.4833 155° Southeast 409 471 37,000  Level Oakland Center
12:52AM 35.1572 -119.4236 155° Southeast 408 470 37,000  Level Oakland Center
12:53AM 35.0547 -119.3639 154° Southeast 412 474 37,000  Level Los Angeles Center
12:55AM 34.9514 -119.3044 155° Southeast 411 473 37,000  Level Los Angeles Center
12:56AM 34.8489 -119.2450 155° Southeast 409 471 37,000  Level Los Angeles Center
12:57AM 34.7489 -119.1853 154° Southeast 404 465 37,000 -300 Level Los Angeles Center
12:58AM 34.6342 -119.1142 153° Southeast 403 464 36,400 -2,100 Descending Los Angeles Center
12:59AM 34.5331 -119.0300 146° Southeast 412 474 32,800 -3,420 Descending Los Angeles Center
01:00AM 34.4369 -118.9506 146° Southeast 416 479 29,500 -3,180 Descending Los Angeles Center
01:01AM 34.3369 -118.8753 148° Southeast 421 484 26,300 -3,000 Descending Los Angeles Center
01:02AM 34.2289 -118.8350 163° South 409 471 23,400 -2,820 Descending Los Angeles Center
01:03AM 34.1253 -118.7975 163° South 388 447 20,600 -2,880 Descending Los Angeles Center
01:04AM 34.0147 -118.7550 162° South 378 435 17,500 -3,000 Descending Los Angeles Center
01:05AM 33.9172 -118.7203 164° South 368 423 14,500 -1,740 Descending Los Angeles Center
01:06AM 33.8136 -118.6833 163° South 362 417 14,000 -1,020 Descending Los Angeles Center
01:07AM 33.7331 -118.6531 163° South 304 350 12,500 -1,800 Descending Los Angeles Center
01:08AM 33.6561 -118.6269 164° South 292 336 10,400 -2,100 Descending Los Angeles Center
01:09AM 33.5836 -118.5956 160° South 280 322 8,300 -1,920 Descending Los Angeles Center
01:10AM 33.5717 -118.5094 99° East 279 321 6,500 -1,500 Descending Los Angeles Center
01:11AM 33.5789 -118.4203 84° East 274 315 5,300 -840 Descending Los Angeles Center
01:12AM 33.5981 -118.3419 74° East 258 297 4,900 -180 Descending Los Angeles Center
01:13AM 33.6297 -118.2675 63° Northeast 224 258 5,000  Climbing Los Angeles Center
01:14AM 33.6550 -118.2067 63° Northeast 213 245 5,000  Level Los Angeles Center
01:15AM 33.6800 -118.1456 64° Northeast 208 239 5,000 60 Level Los Angeles Center
01:16AM 33.7000 -118.1000 62° Northeast 206 237 5,100 60 Climbing Southern California TRACON
01:17AM 33.7167 -118.0500 68° East 194 223 5,100 -360 Level Southern California TRACON
01:18AM 33.7500 -117.9833 59° Northeast 197 227 4,400 -780 Descending Southern California TRACON
01:19AM 33.7667 -117.9333 68° East 184 212 3,600 -660 Descending Southern California TRACON
01:20AM 33.8000 -117.8833 51° Northeast 185 213 3,100 -300 Descending Southern California TRACON
01:21AM 33.8333 -117.8500 40° Northeast 169 194 3,100 -180 Level Southern California TRACON
01:22AM 33.8167 -117.8000 112° Southeast 163 188 2,800 -360 Descending Southern California TRACON
01:23AM 33.7833 -117.8000 180° South 153 176 2,400 -600 Descending Southern California TRACON
01:24AM 33.7500 -117.8167 203° Southwest 134 154 1,600 -660 Descending Southern California TRACON
01:25AM 33.7167 -117.8333 203° Southwest 123 142 1,100 -600 Descending Southern California TRACON
01:26AM 33.7000 -117.8667 239° Southwest 119 137 400 -720 Descending Southern California TRACON